アテネ の空港の天気 - METARとTAF

アテネ国際空港 ( LGAV / ATH ) - ギリシャ アテネ
飛行場実況気象(Metar)
観測時間05/29 02:50 EEST (05/28 23:50 UTC)
風向・風速西 2m/s
視程10km以上
天気現象
少しの雲 雲底高度 910m
気温18℃
湿度56%
気圧1008hPa
METARLGAV 282350Z 28004KT 9999 FEW030 18/09 Q1008 NOSIG
過去の天気等 Google飛行場航空写真 Wunderground天気予報

過去48時間のMETAR

飛行場予報(TAF)
発表時間: 5/29 02:00 EEST (5/28 23:00 UTC)
予報対象時間: 29日3時 EEST ~ 30日3時 EEST
風向・風速不定 3m/s
視程10km以上
少しの雲 雲底高度 760m
29日10時 EEST ~ 29日12時 EEST に徐々に
風向・風速南 6m/s
29日12時 EEST ~ 29日19時 EEST に一時的に
風向・風速南 8m/s 瞬間風速 13m/s
29日19時 EEST ~ 29日21時 EEST に徐々に
風向・風速南西 5m/s
TAF LGAV 282300Z 2900/2924 VRB05KT 9999 FEW025
BECMG 2907/2909 17012KT
TEMPO 2909/2916 18015G25KT
BECMG 2916/2918 23010KT